Dixon, Iowa
Current Conditions -  °F | °C
As of 2:03 AM on Friday 31 Oct 2014 (Local Time) from KDVN Reporting Station
Overcast Overcast  
Wind Chill: 36°   Ceiling: 3400
Heat Index: 45°   Visibility: 10mi
Dew Point: 31°   Wind: 23mph
Humidity: 58%   Direction: 350°N
Pressure: 30.14"   Gusts: 30mph
Location:  41.74°N, 90.78°W
Report Text: KDVN 310703Z AUTO 35020G26KT 10SM SCT026 OVC034 07/M01 A3014 RMK AO2 PK WND 35027/0701 T00721006 TSNO
Loading
Personal Weather Stations






























Interactive Weather Map
Tropical Storm Tracking
New forecast layout! Learn more

10-Day Weather Forecast

Advertisements
Track Severe Weather on mobile